sensor_id;sensor_type;location;lat;lon;timestamp;pressure;altitude;pressure_sealevel;temperature
18219;BMP180;9234;49.344;11.120;2022-11-25T00:01:32;97429.00;;;1.90
18219;BMP180;9234;49.344;11.120;2022-11-25T00:04:01;97438.00;;;1.90
18219;BMP180;9234;49.344;11.120;2022-11-25T00:06:32;97437.00;;;1.80
18219;BMP180;9234;49.344;11.120;2022-11-25T00:09:04;97441.00;;;1.80
18219;BMP180;9234;49.344;11.120;2022-11-25T00:11:34;97446.00;;;1.80
18219;BMP180;9234;49.344;11.120;2022-11-25T00:14:04;97444.00;;;1.80
18219;BMP180;9234;49.344;11.120;2022-11-25T00:16:33;97442.00;;;1.80
18219;BMP180;9234;49.344;11.120;2022-11-25T00:19:02;97435.00;;;1.70
18219;BMP180;9234;49.344;11.120;2022-11-25T00:21:32;97440.00;;;1.70
18219;BMP180;9234;49.344;11.120;2022-11-25T00:24:04;97447.00;;;1.70
18219;BMP180;9234;49.344;11.120;2022-11-25T00:26:35;97440.00;;;1.70
18219;BMP180;9234;49.344;11.120;2022-11-25T00:29:06;97453.00;;;1.70
18219;BMP180;9234;49.344;11.120;2022-11-25T00:31:39;97450.00;;;1.70
18219;BMP180;9234;49.344;11.120;2022-11-25T00:34:11;97450.00;;;1.70
18219;BMP180;9234;49.344;11.120;2022-11-25T00:36:40;97445.00;;;1.70
18219;BMP180;9234;49.344;11.120;2022-11-25T00:39:12;97452.00;;;1.70
18219;BMP180;9234;49.344;11.120;2022-11-25T00:41:41;97455.00;;;1.70
18219;BMP180;9234;49.344;11.120;2022-11-25T00:44:27;97436.00;;;1.70
18219;BMP180;9234;49.344;11.120;2022-11-25T00:47:11;97440.00;;;1.70
18219;BMP180;9234;49.344;11.120;2022-11-25T00:49:44;97442.00;;;1.70
18219;BMP180;9234;49.344;11.120;2022-11-25T00:52:15;97459.00;;;1.70
18219;BMP180;9234;49.344;11.120;2022-11-25T00:54:45;97465.00;;;1.70
18219;BMP180;9234;49.344;11.120;2022-11-25T00:57:15;97456.00;;;1.70
18219;BMP180;9234;49.344;11.120;2022-11-25T00:59:44;97452.00;;;1.70
18219;BMP180;9234;49.344;11.120;2022-11-25T01:02:15;97463.00;;;1.70
18219;BMP180;9234;49.344;11.120;2022-11-25T01:04:44;97461.00;;;1.60
18219;BMP180;9234;49.344;11.120;2022-11-25T01:07:16;97452.00;;;1.60
18219;BMP180;9234;49.344;11.120;2022-11-25T01:09:44;97468.00;;;1.60
18219;BMP180;9234;49.344;11.120;2022-11-25T01:12:12;97462.00;;;1.60
18219;BMP180;9234;49.344;11.120;2022-11-25T01:14:40;97471.00;;;1.50
18219;BMP180;9234;49.344;11.120;2022-11-25T01:17:09;97474.00;;;1.50
18219;BMP180;9234;49.344;11.120;2022-11-25T01:19:38;97465.00;;;1.50
18219;BMP180;9234;49.344;11.120;2022-11-25T01:22:08;97449.00;;;1.40
18219;BMP180;9234;49.344;11.120;2022-11-25T01:24:36;97446.00;;;1.40
18219;BMP180;9234;49.344;11.120;2022-11-25T01:27:05;97462.00;;;1.40
18219;BMP180;9234;49.344;11.120;2022-11-25T01:29:33;97463.00;;;1.40
18219;BMP180;9234;49.344;11.120;2022-11-25T01:32:01;97457.00;;;1.40
18219;BMP180;9234;49.344;11.120;2022-11-25T01:34:29;97463.00;;;1.30
18219;BMP180;9234;49.344;11.120;2022-11-25T01:37:02;97465.00;;;1.30
18219;BMP180;9234;49.344;11.120;2022-11-25T01:39:30;97467.00;;;1.30
18219;BMP180;9234;49.344;11.120;2022-11-25T01:42:00;97468.00;;;1.20
18219;BMP180;9234;49.344;11.120;2022-11-25T01:44:30;97453.00;;;1.20
18219;BMP180;9234;49.344;11.120;2022-11-25T01:47:11;97467.00;;;1.20
18219;BMP180;9234;49.344;11.120;2022-11-25T01:49:45;97454.00;;;1.20
18219;BMP180;9234;49.344;11.120;2022-11-25T01:52:19;97449.00;;;1.10
18219;BMP180;9234;49.344;11.120;2022-11-25T01:54:54;97457.00;;;1.10
18219;BMP180;9234;49.344;11.120;2022-11-25T01:57:28;97457.00;;;1.10
18219;BMP180;9234;49.344;11.120;2022-11-25T02:00:03;97451.00;;;1.10
18219;BMP180;9234;49.344;11.120;2022-11-25T02:02:43;97456.00;;;1.10
18219;BMP180;9234;49.344;11.120;2022-11-25T02:05:16;97458.00;;;1.00
18219;BMP180;9234;49.344;11.120;2022-11-25T02:07:50;97461.00;;;1.00
18219;BMP180;9234;49.344;11.120;2022-11-25T02:10:27;97440.00;;;1.00
18219;BMP180;9234;49.344;11.120;2022-11-25T02:12:57;97450.00;;;1.00
18219;BMP180;9234;49.344;11.120;2022-11-25T02:15:28;97451.00;;;1.00
18219;BMP180;9234;49.344;11.120;2022-11-25T02:17:56;97460.00;;;0.90
18219;BMP180;9234;49.344;11.120;2022-11-25T02:20:24;97461.00;;;0.90
18219;BMP180;9234;49.344;11.120;2022-11-25T02:23:03;97446.00;;;0.90
18219;BMP180;9234;49.344;11.120;2022-11-25T02:25:38;97463.00;;;0.90
18219;BMP180;9234;49.344;11.120;2022-11-25T02:28:15;97453.00;;;0.90
18219;BMP180;9234;49.344;11.120;2022-11-25T02:30:44;97447.00;;;0.80
18219;BMP180;9234;49.344;11.120;2022-11-25T02:33:14;97454.00;;;0.80
18219;BMP180;9234;49.344;11.120;2022-11-25T02:35:45;97457.00;;;0.80
18219;BMP180;9234;49.344;11.120;2022-11-25T02:38:19;97456.00;;;0.80
18219;BMP180;9234;49.344;11.120;2022-11-25T02:40:55;97459.00;;;0.80
18219;BMP180;9234;49.344;11.120;2022-11-25T02:43:25;97456.00;;;0.80
18219;BMP180;9234;49.344;11.120;2022-11-25T02:46:01;97451.00;;;0.70
18219;BMP180;9234;49.344;11.120;2022-11-25T02:48:34;97452.00;;;0.70
18219;BMP180;9234;49.344;11.120;2022-11-25T02:51:26;97448.00;;;0.70
18219;BMP180;9234;49.344;11.120;2022-11-25T02:53:57;97447.00;;;0.70
18219;BMP180;9234;49.344;11.120;2022-11-25T02:56:30;97454.00;;;0.70
18219;BMP180;9234;49.344;11.120;2022-11-25T02:59:00;97440.00;;;0.70
18219;BMP180;9234;49.344;11.120;2022-11-25T03:01:29;97467.00;;;0.70
18219;BMP180;9234;49.344;11.120;2022-11-25T03:03:58;97441.00;;;0.70
18219;BMP180;9234;49.344;11.120;2022-11-25T03:06:27;97440.00;;;0.70
18219;BMP180;9234;49.344;11.120;2022-11-25T03:08:56;97441.00;;;0.70
18219;BMP180;9234;49.344;11.120;2022-11-25T03:11:27;97446.00;;;0.60
18219;BMP180;9234;49.344;11.120;2022-11-25T03:14:10;97449.00;;;0.60
18219;BMP180;9234;49.344;11.120;2022-11-25T03:16:38;97440.00;;;0.60
18219;BMP180;9234;49.344;11.120;2022-11-25T03:19:07;97457.00;;;0.60
18219;BMP180;9234;49.344;11.120;2022-11-25T03:21:35;97460.00;;;0.50
18219;BMP180;9234;49.344;11.120;2022-11-25T03:24:04;97452.00;;;0.50
18219;BMP180;9234;49.344;11.120;2022-11-25T03:26:34;97444.00;;;0.50
18219;BMP180;9234;49.344;11.120;2022-11-25T03:29:02;97452.00;;;0.50
18219;BMP180;9234;49.344;11.120;2022-11-25T03:31:32;97467.00;;;0.50
18219;BMP180;9234;49.344;11.120;2022-11-25T03:34:01;97461.00;;;0.50
18219;BMP180;9234;49.344;11.120;2022-11-25T03:36:29;97453.00;;;0.40
18219;BMP180;9234;49.344;11.120;2022-11-25T03:38:57;97458.00;;;0.40
18219;BMP180;9234;49.344;11.120;2022-11-25T03:41:26;97459.00;;;0.40
18219;BMP180;9234;49.344;11.120;2022-11-25T03:43:56;97449.00;;;0.40
18219;BMP180;9234;49.344;11.120;2022-11-25T03:46:24;97447.00;;;0.30
18219;BMP180;9234;49.344;11.120;2022-11-25T03:48:54;97450.00;;;0.30
18219;BMP180;9234;49.344;11.120;2022-11-25T03:51:22;97457.00;;;0.30
18219;BMP180;9234;49.344;11.120;2022-11-25T03:53:52;97465.00;;;0.30
18219;BMP180;9234;49.344;11.120;2022-11-25T03:56:22;97470.00;;;0.30
18219;BMP180;9234;49.344;11.120;2022-11-25T03:58:50;97463.00;;;0.30
18219;BMP180;9234;49.344;11.120;2022-11-25T04:01:20;97457.00;;;0.30
18219;BMP180;9234;49.344;11.120;2022-11-25T04:03:49;97455.00;;;0.30
18219;BMP180;9234;49.344;11.120;2022-11-25T04:06:17;97449.00;;;0.20
18219;BMP180;9234;49.344;11.120;2022-11-25T04:08:48;97455.00;;;0.20
18219;BMP180;9234;49.344;11.120;2022-11-25T04:11:17;97446.00;;;0.20
18219;BMP180;9234;49.344;11.120;2022-11-25T04:13:49;97453.00;;;0.20
18219;BMP180;9234;49.344;11.120;2022-11-25T04:16:22;97440.00;;;0.20
18219;BMP180;9234;49.344;11.120;2022-11-25T04:18:53;97437.00;;;0.20
18219;BMP180;9234;49.344;11.120;2022-11-25T04:21:22;97444.00;;;0.20
18219;BMP180;9234;49.344;11.120;2022-11-25T04:23:50;97434.00;;;0.20
18219;BMP180;9234;49.344;11.120;2022-11-25T04:26:19;97440.00;;;0.20
18219;BMP180;9234;49.344;11.120;2022-11-25T04:28:48;97438.00;;;0.20
18219;BMP180;9234;49.344;11.120;2022-11-25T04:31:20;97448.00;;;0.20
18219;BMP180;9234;49.344;11.120;2022-11-25T04:33:49;97441.00;;;0.10
18219;BMP180;9234;49.344;11.120;2022-11-25T04:36:20;97439.00;;;0.10
18219;BMP180;9234;49.344;11.120;2022-11-25T04:38:49;97440.00;;;0.10
18219;BMP180;9234;49.344;11.120;2022-11-25T04:41:18;97435.00;;;0.10
18219;BMP180;9234;49.344;11.120;2022-11-25T04:43:47;97438.00;;;0.10
18219;BMP180;9234;49.344;11.120;2022-11-25T04:46:18;97427.00;;;0.10
18219;BMP180;9234;49.344;11.120;2022-11-25T04:48:51;97428.00;;;0.10
18219;BMP180;9234;49.344;11.120;2022-11-25T04:51:20;97431.00;;;0.10
18219;BMP180;9234;49.344;11.120;2022-11-25T04:53:52;97434.00;;;0.10
18219;BMP180;9234;49.344;11.120;2022-11-25T04:56:22;97456.00;;;0.10
18219;BMP180;9234;49.344;11.120;2022-11-25T04:58:52;97453.00;;;0.10
18219;BMP180;9234;49.344;11.120;2022-11-25T05:01:42;97433.00;;;0.00
18219;BMP180;9234;49.344;11.120;2022-11-25T05:04:24;97440.00;;;0.00
18219;BMP180;9234;49.344;11.120;2022-11-25T05:06:53;97432.00;;;0.00
18219;BMP180;9234;49.344;11.120;2022-11-25T05:09:23;97437.00;;;0.00
18219;BMP180;9234;49.344;11.120;2022-11-25T05:12:03;97438.00;;;0.00
18219;BMP180;9234;49.344;11.120;2022-11-25T05:14:31;97444.00;;;0.00
18219;BMP180;9234;49.344;11.120;2022-11-25T05:17:03;97445.00;;;-0.10
18219;BMP180;9234;49.344;11.120;2022-11-25T05:19:34;97447.00;;;-0.10
18219;BMP180;9234;49.344;11.120;2022-11-25T05:22:03;97426.00;;;-0.10
18219;BMP180;9234;49.344;11.120;2022-11-25T05:24:31;97441.00;;;-0.10
18219;BMP180;9234;49.344;11.120;2022-11-25T05:27:02;97443.00;;;-0.10
18219;BMP180;9234;49.344;11.120;2022-11-25T05:29:30;97434.00;;;-0.10
18219;BMP180;9234;49.344;11.120;2022-11-25T05:31:59;97451.00;;;-0.10
18219;BMP180;9234;49.344;11.120;2022-11-25T05:34:29;97443.00;;;-0.10
18219;BMP180;9234;49.344;11.120;2022-11-25T05:36:59;97438.00;;;-0.10
18219;BMP180;9234;49.344;11.120;2022-11-25T05:39:28;97446.00;;;-0.10
18219;BMP180;9234;49.344;11.120;2022-11-25T05:42:17;97437.00;;;-0.10
18219;BMP180;9234;49.344;11.120;2022-11-25T05:44:45;97440.00;;;-0.10
18219;BMP180;9234;49.344;11.120;2022-11-25T05:47:13;97446.00;;;-0.10
18219;BMP180;9234;49.344;11.120;2022-11-25T05:49:41;97453.00;;;-0.10
18219;BMP180;9234;49.344;11.120;2022-11-25T05:52:11;97472.00;;;-0.20
18219;BMP180;9234;49.344;11.120;2022-11-25T05:54:47;97461.00;;;-0.20
18219;BMP180;9234;49.344;11.120;2022-11-25T05:57:22;97478.00;;;-0.20
18219;BMP180;9234;49.344;11.120;2022-11-25T05:59:55;97483.00;;;-0.20
18219;BMP180;9234;49.344;11.120;2022-11-25T06:02:40;97478.00;;;-0.20
18219;BMP180;9234;49.344;11.120;2022-11-25T06:05:12;97470.00;;;-0.20
18219;BMP180;9234;49.344;11.120;2022-11-25T06:07:41;97461.00;;;-0.20
18219;BMP180;9234;49.344;11.120;2022-11-25T06:10:11;97468.00;;;-0.10
18219;BMP180;9234;49.344;11.120;2022-11-25T06:12:40;97458.00;;;-0.10
18219;BMP180;9234;49.344;11.120;2022-11-25T06:15:10;97448.00;;;-0.10
18219;BMP180;9234;49.344;11.120;2022-11-25T06:17:39;97451.00;;;-0.10
18219;BMP180;9234;49.344;11.120;2022-11-25T06:20:12;97444.00;;;-0.10
18219;BMP180;9234;49.344;11.120;2022-11-25T06:22:42;97456.00;;;0.00
18219;BMP180;9234;49.344;11.120;2022-11-25T06:25:10;97451.00;;;0.00
18219;BMP180;9234;49.344;11.120;2022-11-25T06:27:40;97459.00;;;0.00
18219;BMP180;9234;49.344;11.120;2022-11-25T06:30:29;97449.00;;;0.10
18219;BMP180;9234;49.344;11.120;2022-11-25T06:33:09;97448.00;;;0.10
18219;BMP180;9234;49.344;11.120;2022-11-25T06:35:39;97452.00;;;0.10
18219;BMP180;9234;49.344;11.120;2022-11-25T06:38:09;97452.00;;;0.20
18219;BMP180;9234;49.344;11.120;2022-11-25T06:40:37;97481.00;;;0.20
18219;BMP180;9234;49.344;11.120;2022-11-25T06:43:05;97464.00;;;0.30
18219;BMP180;9234;49.344;11.120;2022-11-25T06:45:34;97470.00;;;0.30
18219;BMP180;9234;49.344;11.120;2022-11-25T06:48:02;97466.00;;;0.40
18219;BMP180;9234;49.344;11.120;2022-11-25T06:50:31;97476.00;;;0.40
18219;BMP180;9234;49.344;11.120;2022-11-25T06:53:01;97480.00;;;0.40
18219;BMP180;9234;49.344;11.120;2022-11-25T06:55:31;97487.00;;;0.50
18219;BMP180;9234;49.344;11.120;2022-11-25T06:57:59;97488.00;;;0.50
18219;BMP180;9234;49.344;11.120;2022-11-25T07:00:48;97492.00;;;0.50
18219;BMP180;9234;49.344;11.120;2022-11-25T07:03:16;97520.00;;;0.60
18219;BMP180;9234;49.344;11.120;2022-11-25T07:05:44;97516.00;;;0.60
18219;BMP180;9234;49.344;11.120;2022-11-25T07:08:12;97503.00;;;0.60
18219;BMP180;9234;49.344;11.120;2022-11-25T07:10:42;97514.00;;;0.70
18219;BMP180;9234;49.344;11.120;2022-11-25T07:13:12;97501.00;;;0.70
18219;BMP180;9234;49.344;11.120;2022-11-25T07:15:41;97521.00;;;0.80
18219;BMP180;9234;49.344;11.120;2022-11-25T07:18:09;97520.00;;;0.80
18219;BMP180;9234;49.344;11.120;2022-11-25T07:20:38;97523.00;;;0.80
18219;BMP180;9234;49.344;11.120;2022-11-25T07:23:06;97524.00;;;0.90
18219;BMP180;9234;49.344;11.120;2022-11-25T07:25:35;97522.00;;;0.90
18219;BMP180;9234;49.344;11.120;2022-11-25T07:28:04;97521.00;;;1.00
18219;BMP180;9234;49.344;11.120;2022-11-25T07:30:32;97526.00;;;1.00
18219;BMP180;9234;49.344;11.120;2022-11-25T07:33:21;97524.00;;;1.00
18219;BMP180;9234;49.344;11.120;2022-11-25T07:35:49;97531.00;;;1.10
18219;BMP180;9234;49.344;11.120;2022-11-25T07:38:17;97515.00;;;1.10
18219;BMP180;9234;49.344;11.120;2022-11-25T07:40:45;97519.00;;;1.20
18219;BMP180;9234;49.344;11.120;2022-11-25T07:43:17;97516.00;;;1.20
18219;BMP180;9234;49.344;11.120;2022-11-25T07:45:45;97520.00;;;1.30
18219;BMP180;9234;49.344;11.120;2022-11-25T07:48:14;97511.00;;;1.30
18219;BMP180;9234;49.344;11.120;2022-11-25T07:50:42;97532.00;;;1.40
18219;BMP180;9234;49.344;11.120;2022-11-25T07:53:10;97531.00;;;1.40
18219;BMP180;9234;49.344;11.120;2022-11-25T07:55:38;97535.00;;;1.50
18219;BMP180;9234;49.344;11.120;2022-11-25T07:58:06;97535.00;;;1.50
18219;BMP180;9234;49.344;11.120;2022-11-25T08:00:35;97542.00;;;1.60
18219;BMP180;9234;49.344;11.120;2022-11-25T08:03:04;97532.00;;;1.60
18219;BMP180;9234;49.344;11.120;2022-11-25T08:05:32;97549.00;;;1.60
18219;BMP180;9234;49.344;11.120;2022-11-25T08:08:01;97551.00;;;1.60
18219;BMP180;9234;49.344;11.120;2022-11-25T08:10:29;97548.00;;;1.60
18219;BMP180;9234;49.344;11.120;2022-11-25T08:12:57;97555.00;;;1.70
18219;BMP180;9234;49.344;11.120;2022-11-25T08:15:25;97558.00;;;1.70
18219;BMP180;9234;49.344;11.120;2022-11-25T08:17:55;97548.00;;;1.70
18219;BMP180;9234;49.344;11.120;2022-11-25T08:20:23;97566.00;;;1.70
18219;BMP180;9234;49.344;11.120;2022-11-25T08:22:53;97548.00;;;1.70
18219;BMP180;9234;49.344;11.120;2022-11-25T08:25:21;97561.00;;;1.80
18219;BMP180;9234;49.344;11.120;2022-11-25T08:27:49;97545.00;;;1.80
18219;BMP180;9234;49.344;11.120;2022-11-25T08:30:18;97543.00;;;1.90
18219;BMP180;9234;49.344;11.120;2022-11-25T08:32:47;97548.00;;;1.90
18219;BMP180;9234;49.344;11.120;2022-11-25T08:35:17;97545.00;;;2.00
18219;BMP180;9234;49.344;11.120;2022-11-25T08:37:45;97539.00;;;2.10
18219;BMP180;9234;49.344;11.120;2022-11-25T08:40:14;97538.00;;;2.20
18219;BMP180;9234;49.344;11.120;2022-11-25T08:42:42;97538.00;;;2.30
18219;BMP180;9234;49.344;11.120;2022-11-25T08:45:10;97553.00;;;2.40
18219;BMP180;9234;49.344;11.120;2022-11-25T08:47:39;97536.00;;;2.50
18219;BMP180;9234;49.344;11.120;2022-11-25T08:50:09;97553.00;;;2.60
18219;BMP180;9234;49.344;11.120;2022-11-25T08:52:41;97558.00;;;2.70
18219;BMP180;9234;49.344;11.120;2022-11-25T08:55:09;97543.00;;;2.90
18219;BMP180;9234;49.344;11.120;2022-11-25T08:57:38;97541.00;;;2.90
18219;BMP180;9234;49.344;11.120;2022-11-25T09:00:08;97551.00;;;3.10
18219;BMP180;9234;49.344;11.120;2022-11-25T09:02:36;97547.00;;;3.20
18219;BMP180;9234;49.344;11.120;2022-11-25T09:05:05;97554.00;;;3.30
18219;BMP180;9234;49.344;11.120;2022-11-25T09:07:33;97563.00;;;3.40
18219;BMP180;9234;49.344;11.120;2022-11-25T09:10:04;97572.00;;;3.50
18219;BMP180;9234;49.344;11.120;2022-11-25T09:12:32;97555.00;;;3.70
18219;BMP180;9234;49.344;11.120;2022-11-25T09:15:01;97553.00;;;3.80
18219;BMP180;9234;49.344;11.120;2022-11-25T09:17:29;97553.00;;;3.90
18219;BMP180;9234;49.344;11.120;2022-11-25T09:19:57;97551.00;;;4.10
18219;BMP180;9234;49.344;11.120;2022-11-25T09:22:25;97541.00;;;4.20
18219;BMP180;9234;49.344;11.120;2022-11-25T09:24:53;97548.00;;;4.30
18219;BMP180;9234;49.344;11.120;2022-11-25T09:27:23;97572.00;;;4.50
18219;BMP180;9234;49.344;11.120;2022-11-25T09:29:51;97562.00;;;4.60
18219;BMP180;9234;49.344;11.120;2022-11-25T09:32:19;97567.00;;;4.80
18219;BMP180;9234;49.344;11.120;2022-11-25T09:34:48;97565.00;;;5.10
18219;BMP180;9234;49.344;11.120;2022-11-25T09:37:16;97574.00;;;5.30
18219;BMP180;9234;49.344;11.120;2022-11-25T09:39:44;97577.00;;;5.60
18219;BMP180;9234;49.344;11.120;2022-11-25T09:42:33;97582.00;;;5.80
18219;BMP180;9234;49.344;11.120;2022-11-25T09:45:35;97574.00;;;5.90
18219;BMP180;9234;49.344;11.120;2022-11-25T09:48:48;97573.00;;;6.10
18219;BMP180;9234;49.344;11.120;2022-11-25T09:51:21;97567.00;;;6.20
18219;BMP180;9234;49.344;11.120;2022-11-25T09:53:54;97568.00;;;6.30
18219;BMP180;9234;49.344;11.120;2022-11-25T09:56:32;97556.00;;;6.40
18219;BMP180;9234;49.344;11.120;2022-11-25T09:59:10;97574.00;;;6.50
18219;BMP180;9234;49.344;11.120;2022-11-25T10:01:47;97573.00;;;6.60
18219;BMP180;9234;49.344;11.120;2022-11-25T10:04:23;97562.00;;;6.60
18219;BMP180;9234;49.344;11.120;2022-11-25T10:06:57;97565.00;;;6.70
18219;BMP180;9234;49.344;11.120;2022-11-25T10:09:31;97565.00;;;6.80
18219;BMP180;9234;49.344;11.120;2022-11-25T10:12:05;97557.00;;;7.00
18219;BMP180;9234;49.344;11.120;2022-11-25T10:14:45;97550.00;;;7.20
18219;BMP180;9234;49.344;11.120;2022-11-25T10:17:24;97547.00;;;7.50
18219;BMP180;9234;49.344;11.120;2022-11-25T10:20:02;97543.00;;;7.60
18219;BMP180;9234;49.344;11.120;2022-11-25T10:22:35;97550.00;;;7.80
18219;BMP180;9234;49.344;11.120;2022-11-25T10:25:14;97551.00;;;7.90
18219;BMP180;9234;49.344;11.120;2022-11-25T10:27:48;97545.00;;;8.10
18219;BMP180;9234;49.344;11.120;2022-11-25T10:30:21;97543.00;;;8.10
18219;BMP180;9234;49.344;11.120;2022-11-25T10:32:54;97542.00;;;8.20
18219;BMP180;9234;49.344;11.120;2022-11-25T10:35:34;97552.00;;;8.30
18219;BMP180;9234;49.344;11.120;2022-11-25T10:38:10;97539.00;;;8.50
18219;BMP180;9234;49.344;11.120;2022-11-25T10:40:49;97544.00;;;8.50
18219;BMP180;9234;49.344;11.120;2022-11-25T10:43:17;97549.00;;;8.50
18219;BMP180;9234;49.344;11.120;2022-11-25T10:45:58;97561.00;;;8.50
18219;BMP180;9234;49.344;11.120;2022-11-25T10:48:51;97549.00;;;8.40
18219;BMP180;9234;49.344;11.120;2022-11-25T10:51:36;97539.00;;;8.40
18219;BMP180;9234;49.344;11.120;2022-11-25T10:54:16;97548.00;;;8.60
18219;BMP180;9234;49.344;11.120;2022-11-25T10:56:56;97552.00;;;8.90
18219;BMP180;9234;49.344;11.120;2022-11-25T10:59:29;97533.00;;;9.10
18219;BMP180;9234;49.344;11.120;2022-11-25T11:02:20;97551.00;;;9.40
18219;BMP180;9234;49.344;11.120;2022-11-25T11:04:57;97540.00;;;9.50
18219;BMP180;9234;49.344;11.120;2022-11-25T11:07:29;97546.00;;;9.60
18219;BMP180;9234;49.344;11.120;2022-11-25T11:10:24;97558.00;;;9.70
18219;BMP180;9234;49.344;11.120;2022-11-25T11:12:57;97545.00;;;9.80
18219;BMP180;9234;49.344;11.120;2022-11-25T11:15:28;97550.00;;;9.80
18219;BMP180;9234;49.344;11.120;2022-11-25T11:18:14;97541.00;;;9.90
18219;BMP180;9234;49.344;11.120;2022-11-25T11:20:50;97563.00;;;9.90
18219;BMP180;9234;49.344;11.120;2022-11-25T11:23:19;97548.00;;;10.00
18219;BMP180;9234;49.344;11.120;2022-11-25T11:26:02;97554.00;;;10.00
18219;BMP180;9234;49.344;11.120;2022-11-25T11:28:39;97545.00;;;10.10
18219;BMP180;9234;49.344;11.120;2022-11-25T11:31:17;97541.00;;;10.20
18219;BMP180;9234;49.344;11.120;2022-11-25T11:33:59;97545.00;;;10.30
18219;BMP180;9234;49.344;11.120;2022-11-25T11:36:45;97549.00;;;10.40
18219;BMP180;9234;49.344;11.120;2022-11-25T11:39:37;97544.00;;;10.50
18219;BMP180;9234;49.344;11.120;2022-11-25T11:42:20;97541.00;;;10.70
18219;BMP180;9234;49.344;11.120;2022-11-25T11:45:08;97546.00;;;10.90
18219;BMP180;9234;49.344;11.120;2022-11-25T11:47:55;97546.00;;;11.30
18219;BMP180;9234;49.344;11.120;2022-11-25T11:50:31;97544.00;;;11.60
18219;BMP180;9234;49.344;11.120;2022-11-25T11:53:10;97548.00;;;11.80
18219;BMP180;9234;49.344;11.120;2022-11-25T11:55:58;97542.00;;;11.90
18219;BMP180;9234;49.344;11.120;2022-11-25T11:59:05;97541.00;;;11.90
18219;BMP180;9234;49.344;11.120;2022-11-25T12:01:56;97542.00;;;11.90
18219;BMP180;9234;49.344;11.120;2022-11-25T12:04:30;97552.00;;;11.80
18219;BMP180;9234;49.344;11.120;2022-11-25T12:07:11;97570.00;;;11.80
18219;BMP180;9234;49.344;11.120;2022-11-25T12:09:52;97559.00;;;11.70
18219;BMP180;9234;49.344;11.120;2022-11-25T12:12:36;97571.00;;;11.60
18219;BMP180;9234;49.344;11.120;2022-11-25T12:15:16;97569.00;;;11.50
18219;BMP180;9234;49.344;11.120;2022-11-25T12:17:51;97576.00;;;11.40
18219;BMP180;9234;49.344;11.120;2022-11-25T12:20:34;97565.00;;;11.40
18219;BMP180;9234;49.344;11.120;2022-11-25T12:23:13;97566.00;;;11.30
18219;BMP180;9234;49.344;11.120;2022-11-25T12:25:46;97553.00;;;11.30
18219;BMP180;9234;49.344;11.120;2022-11-25T12:28:25;97546.00;;;11.20
18219;BMP180;9234;49.344;11.120;2022-11-25T12:31:06;97562.00;;;11.20
18219;BMP180;9234;49.344;11.120;2022-11-25T12:33:48;97555.00;;;11.10
18219;BMP180;9234;49.344;11.120;2022-11-25T12:36:28;97556.00;;;11.10
18219;BMP180;9234;49.344;11.120;2022-11-25T12:39:04;97561.00;;;11.10
18219;BMP180;9234;49.344;11.120;2022-11-25T12:41:42;97549.00;;;11.10
18219;BMP180;9234;49.344;11.120;2022-11-25T12:44:16;97552.00;;;11.00
18219;BMP180;9234;49.344;11.120;2022-11-25T12:46:47;97565.00;;;11.00
18219;BMP180;9234;49.344;11.120;2022-11-25T12:49:20;97558.00;;;10.90
18219;BMP180;9234;49.344;11.120;2022-11-25T12:52:16;97563.00;;;10.90
18219;BMP180;9234;49.344;11.120;2022-11-25T12:55:07;97567.00;;;10.90
18219;BMP180;9234;49.344;11.120;2022-11-25T12:58:19;97564.00;;;10.90
18219;BMP180;9234;49.344;11.120;2022-11-25T13:04:38;97577.00;;;10.90
18219;BMP180;9234;49.344;11.120;2022-11-25T13:07:28;97579.00;;;10.90
18219;BMP180;9234;49.344;11.120;2022-11-25T13:10:37;97582.00;;;10.90
18219;BMP180;9234;49.344;11.120;2022-11-25T13:13:27;97583.00;;;10.90
18219;BMP180;9234;49.344;11.120;2022-11-25T13:16:00;97597.00;;;10.90
18219;BMP180;9234;49.344;11.120;2022-11-25T13:18:33;97599.00;;;10.90
18219;BMP180;9234;49.344;11.120;2022-11-25T13:21:08;97592.00;;;10.80
18219;BMP180;9234;49.344;11.120;2022-11-25T13:23:46;97607.00;;;10.70
18219;BMP180;9234;49.344;11.120;2022-11-25T13:26:50;97609.00;;;10.60
18219;BMP180;9234;49.344;11.120;2022-11-25T13:29:58;97619.00;;;10.50
18219;BMP180;9234;49.344;11.120;2022-11-25T13:32:37;97625.00;;;10.50
18219;BMP180;9234;49.344;11.120;2022-11-25T13:35:45;97639.00;;;10.30
18219;BMP180;9234;49.344;11.120;2022-11-25T13:39:03;97634.00;;;10.20
18219;BMP180;9234;49.344;11.120;2022-11-25T13:41:49;97633.00;;;10.10
18219;BMP180;9234;49.344;11.120;2022-11-25T13:44:31;97631.00;;;10.00
18219;BMP180;9234;49.344;11.120;2022-11-25T13:47:32;97643.00;;;9.90
18219;BMP180;9234;49.344;11.120;2022-11-25T13:50:04;97644.00;;;9.90
18219;BMP180;9234;49.344;11.120;2022-11-25T13:52:42;97639.00;;;9.80
18219;BMP180;9234;49.344;11.120;2022-11-25T13:55:32;97648.00;;;9.80
18219;BMP180;9234;49.344;11.120;2022-11-25T13:58:17;97643.00;;;9.70
18219;BMP180;9234;49.344;11.120;2022-11-25T14:01:05;97646.00;;;9.70
18219;BMP180;9234;49.344;11.120;2022-11-25T14:03:59;97658.00;;;9.70
18219;BMP180;9234;49.344;11.120;2022-11-25T14:07:01;97657.00;;;9.60
18219;BMP180;9234;49.344;11.120;2022-11-25T14:09:59;97661.00;;;9.60
18219;BMP180;9234;49.344;11.120;2022-11-25T14:13:00;97667.00;;;9.50
18219;BMP180;9234;49.344;11.120;2022-11-25T14:15:48;97664.00;;;9.50
18219;BMP180;9234;49.344;11.120;2022-11-25T14:19:02;97668.00;;;9.50
18219;BMP180;9234;49.344;11.120;2022-11-25T14:22:05;97673.00;;;9.40
18219;BMP180;9234;49.344;11.120;2022-11-25T14:24:41;97662.00;;;9.40
18219;BMP180;9234;49.344;11.120;2022-11-25T14:27:15;97674.00;;;9.30
18219;BMP180;9234;49.344;11.120;2022-11-25T14:29:51;97670.00;;;9.30
18219;BMP180;9234;49.344;11.120;2022-11-25T14:32:30;97661.00;;;9.30
18219;BMP180;9234;49.344;11.120;2022-11-25T14:35:09;97682.00;;;9.30
18219;BMP180;9234;49.344;11.120;2022-11-25T14:37:44;97690.00;;;9.20
18219;BMP180;9234;49.344;11.120;2022-11-25T14:40:19;97683.00;;;9.20
18219;BMP180;9234;49.344;11.120;2022-11-25T14:42:57;97700.00;;;9.20
18219;BMP180;9234;49.344;11.120;2022-11-25T14:45:30;97693.00;;;9.10
18219;BMP180;9234;49.344;11.120;2022-11-25T14:48:12;97699.00;;;9.10
18219;BMP180;9234;49.344;11.120;2022-11-25T14:50:55;97695.00;;;9.00
18219;BMP180;9234;49.344;11.120;2022-11-25T14:53:26;97692.00;;;9.00
18219;BMP180;9234;49.344;11.120;2022-11-25T14:55:56;97699.00;;;9.00
18219;BMP180;9234;49.344;11.120;2022-11-25T14:58:26;97692.00;;;9.00
18219;BMP180;9234;49.344;11.120;2022-11-25T15:00:59;97704.00;;;9.00
18219;BMP180;9234;49.344;11.120;2022-11-25T15:03:28;97712.00;;;9.00
18219;BMP180;9234;49.344;11.120;2022-11-25T15:06:02;97717.00;;;8.90